Time;durP1;ratioP1;P1;durP2;ratioP2;P2;SDS_P1;SDS_P2;PMS_P1;PMS_P2;Temp;Humidity;BMP_temperature;BMP_pressure;BME280_temperature;BME280_humidity;BME280_pressure;Samples;Min_cycle;Max_cycle;Signal;HPM_P1;HPM_P2
2022/03/17 00:01:45;;;;;;;34.85;25.70;;;10.90;99.90;;;;;;6210335;23;20020;-77
2022/03/17 00:04:11;;;;;;;31.10;26.20;;;10.90;99.90;;;;;;6213221;23;20020;-77
2022/03/17 00:06:37;;;;;;;31.52;24.95;;;10.90;99.90;;;;;;6214622;23;20324;-75
2022/03/17 00:09:04;;;;;;;33.85;27.08;;;10.90;99.90;;;;;;6211268;23;20022;-75
2022/03/17 00:11:30;;;;;;;33.60;26.20;;;10.80;99.90;;;;;;6211974;23;20044;-77
2022/03/17 00:13:55;;;;;;;35.10;26.55;;;10.80;99.90;;;;;;6210375;23;20020;-77
2022/03/17 00:16:21;;;;;;;29.92;25.67;;;10.80;99.90;;;;;;6183528;23;20142;-77
2022/03/17 00:18:46;;;;;;;31.50;26.58;;;10.80;99.90;;;;;;6210020;23;20048;-77
2022/03/17 00:21:12;;;;;;;36.58;28.02;;;10.80;99.90;;;;;;6211563;23;20405;-77
2022/03/17 00:23:38;;;;;;;32.00;26.52;;;10.80;99.90;;;;;;6185338;23;20029;-77
2022/03/17 00:26:03;;;;;;;34.88;26.83;;;10.80;99.90;;;;;;6183111;23;20050;-77
2022/03/17 00:28:29;;;;;;;35.25;26.50;;;10.80;99.90;;;;;;6210567;23;20071;-75
2022/03/17 00:30:56;;;;;;;32.63;27.17;;;10.80;99.90;;;;;;6210744;23;20017;-75
2022/03/17 00:33:22;;;;;;;35.60;27.90;;;10.80;99.90;;;;;;6210565;23;20017;-75
2022/03/17 00:35:47;;;;;;;32.70;26.35;;;10.80;99.90;;;;;;6179237;23;20407;-75
2022/03/17 00:38:16;;;;;;;32.45;26.75;;;10.80;99.90;;;;;;6210266;23;20016;-75
2022/03/17 00:40:42;;;;;;;32.67;26.08;;;10.70;99.90;;;;;;6218460;23;20476;-76
2022/03/17 00:43:11;;;;;;;35.08;27.13;;;10.70;99.90;;;;;;6215845;23;20118;-75
2022/03/17 00:45:37;;;;;;;33.47;26.55;;;10.70;99.90;;;;;;6213911;23;20009;-76
2022/03/17 00:48:03;;;;;;;34.13;27.02;;;10.70;99.90;;;;;;6212484;23;20120;-76
2022/03/17 00:50:29;;;;;;;32.35;26.85;;;10.70;99.90;;;;;;6182437;23;20017;-76
2022/03/17 00:52:55;;;;;;;31.02;26.05;;;10.70;99.90;;;;;;6211734;23;20099;-75
2022/03/17 00:55:22;;;;;;;32.83;26.58;;;10.70;99.90;;;;;;6212822;23;20427;-75
2022/03/17 00:57:48;;;;;;;33.50;27.63;;;10.70;99.90;;;;;;6210007;23;20043;-75
2022/03/17 01:00:15;;;;;;;35.35;27.55;;;10.70;99.90;;;;;;6212332;23;20013;-75
2022/03/17 01:02:41;;;;;;;32.67;26.63;;;10.70;99.90;;;;;;6211543;23;20016;-75
2022/03/17 01:05:08;;;;;;;32.23;26.47;;;10.70;99.90;;;;;;6211469;23;20044;-75
2022/03/17 01:07:34;;;;;;;32.70;26.75;;;10.70;99.90;;;;;;6184433;23;20021;-75
2022/03/17 01:10:00;;;;;;;33.33;26.95;;;10.80;99.90;;;;;;6211764;23;20028;-76
2022/03/17 01:12:25;;;;;;;30.70;25.52;;;10.70;99.90;;;;;;6212850;23;20023;-75
2022/03/17 01:14:51;;;;;;;32.20;26.02;;;10.70;99.90;;;;;;6184378;23;20023;-76
2022/03/17 01:17:17;;;;;;;32.15;24.92;;;10.80;99.90;;;;;;6209540;23;20020;-76
2022/03/17 01:19:42;;;;;;;34.53;25.38;;;10.80;99.90;;;;;;6184193;23;20044;-76
2022/03/17 01:22:08;;;;;;;32.90;26.52;;;10.80;99.90;;;;;;6208450;23;20084;-75
2022/03/17 01:24:33;;;;;;;33.80;25.98;;;10.80;99.90;;;;;;6212238;23;20021;-75
2022/03/17 01:26:59;;;;;;;29.27;25.85;;;10.80;99.90;;;;;;6183436;23;20031;-75
2022/03/17 01:29:29;;;;;;;32.22;26.15;;;10.80;99.90;;;;;;6212897;23;20031;-75
2022/03/17 01:31:54;;;;;;;29.40;25.33;;;10.80;99.90;;;;;;6211970;23;20054;-75
2022/03/17 01:34:20;;;;;;;31.42;25.35;;;10.80;99.90;;;;;;6210075;23;20020;-75
2022/03/17 01:36:46;;;;;;;31.05;26.17;;;10.80;99.90;;;;;;6185865;23;20024;-75
2022/03/17 01:39:11;;;;;;;29.48;25.55;;;10.90;99.90;;;;;;6185270;23;20448;-75
2022/03/17 01:41:39;;;;;;;33.65;27.40;;;10.90;99.90;;;;;;6186605;23;20067;-76
2022/03/17 01:44:06;;;;;;;31.02;24.95;;;10.80;99.90;;;;;;6185696;23;20062;-75
2022/03/17 01:47:26;;;;;;;29.40;25.23;;;10.90;99.90;;;;;;6211732;23;20463;-75
2022/03/17 01:49:17;;;;;;;32.47;26.15;;;10.80;99.90;;;;;;6211136;23;20055;-76
2022/03/17 01:51:45;;;;;;;32.70;26.50;;;10.90;99.90;;;;;;6212686;23;20013;-76
2022/03/17 01:54:11;;;;;;;;;;;10.90;99.90;;;;;;6186271;23;20050;-75
2022/03/17 01:56:37;;;;;;;30.65;25.75;;;10.90;99.90;;;;;;6215109;23;19920;-75
2022/03/17 01:59:03;;;;;;;30.88;25.58;;;10.80;99.90;;;;;;6213259;23;20441;-75
2022/03/17 02:01:28;;;;;;;31.45;25.80;;;10.90;99.90;;;;;;6212456;23;20332;-75
2022/03/17 02:03:56;;;;;;;31.48;25.33;;;10.90;99.90;;;;;;6186058;23;20100;-75
2022/03/17 02:06:23;;;;;;;33.00;26.85;;;10.80;99.90;;;;;;6212326;23;20079;-75
2022/03/17 02:08:49;;;;;;;31.05;25.23;;;10.80;99.90;;;;;;6185544;23;20020;-75
2022/03/17 02:13:58;;;;;;;32.53;27.70;;;10.80;99.90;;;;;;6210630;23;20086;-75
2022/03/17 02:16:27;;;;;;;32.58;26.77;;;10.80;99.90;;;;;;6210895;23;20009;-75
2022/03/17 02:18:53;;;;;;;32.78;26.55;;;10.70;99.90;;;;;;6185009;23;20074;-75
2022/03/17 02:21:19;;;;;;;29.83;26.23;;;10.70;99.90;;;;;;6209036;23;20100;-75
2022/03/17 02:26:31;;;;;;;33.67;27.70;;;10.70;99.90;;;;;;6186393;23;20097;-75
2022/03/17 02:28:58;;;;;;;33.83;27.95;;;10.70;99.90;;;;;;6209120;23;20032;-75
2022/03/17 02:31:25;;;;;;;34.90;27.45;;;10.60;99.90;;;;;;6184463;23;20021;-75
2022/03/17 02:33:52;;;;;;;34.10;26.98;;;10.60;99.90;;;;;;6209394;23;20367;-75
2022/03/17 02:36:18;;;;;;;30.85;26.77;;;10.60;99.90;;;;;;6210852;23;20080;-75
2022/03/17 02:38:44;;;;;;;31.70;26.35;;;10.60;99.90;;;;;;6211395;23;20088;-75
2022/03/17 02:41:21;;;;;;;33.00;27.58;;;10.50;99.90;;;;;;6185844;23;20024;-75
2022/03/17 02:43:50;;;;;;;32.60;27.27;;;10.50;99.90;;;;;;6211671;23;20017;-75
2022/03/17 02:46:16;;;;;;;32.42;26.65;;;10.50;99.90;;;;;;6211584;23;20084;-76
2022/03/17 02:48:43;;;;;;;33.42;26.98;;;10.50;99.90;;;;;;6209987;23;20099;-76
2022/03/17 02:51:09;;;;;;;32.05;26.60;;;10.50;99.90;;;;;;6185629;23;20024;-76
2022/03/17 02:53:35;;;;;;;31.85;27.90;;;10.50;99.90;;;;;;6212160;23;20333;-76
2022/03/17 02:56:00;;;;;;;34.22;27.27;;;10.50;99.90;;;;;;6210020;23;20028;-76
2022/03/17 02:58:26;;;;;;;32.35;27.80;;;10.50;99.90;;;;;;6212906;23;20028;-76
2022/03/17 03:00:51;;;;;;;32.70;27.90;;;10.50;99.90;;;;;;6211318;23;20016;-76
2022/03/17 03:03:17;;;;;;;33.40;27.98;;;10.50;99.90;;;;;;6212227;23;20161;-76
2022/03/17 03:05:44;;;;;;;33.40;27.67;;;10.50;99.90;;;;;;6211197;23;20444;-76
2022/03/17 03:08:10;;;;;;;31.05;26.92;;;10.50;99.90;;;;;;6210664;23;20523;-76
2022/03/17 03:10:36;;;;;;;36.13;27.65;;;10.50;99.90;;;;;;6184553;23;20054;-76
2022/03/17 03:13:02;;;;;;;34.40;27.50;;;10.50;99.90;;;;;;6211050;23;20092;-76
2022/03/17 03:15:29;;;;;;;33.03;27.50;;;10.50;99.90;;;;;;6183831;23;20519;-76
2022/03/17 03:17:55;;;;;;;35.05;27.52;;;10.50;99.90;;;;;;6210452;23;20100;-76
2022/03/17 03:20:21;;;;;;;33.45;27.58;;;10.50;99.90;;;;;;6211395;23;20463;-76
2022/03/17 03:22:47;;;;;;;33.40;27.35;;;10.50;99.90;;;;;;6210699;23;20017;-75
2022/03/17 03:25:12;;;;;;;36.05;28.63;;;10.50;99.90;;;;;;6211353;23;20025;-76
2022/03/17 03:27:43;;;;;;;34.72;28.10;;;10.50;99.90;;;;;;6211827;23;20032;-76
2022/03/17 03:30:11;;;;;;;32.08;27.15;;;10.40;99.90;;;;;;6212988;23;20059;-76
2022/03/17 03:32:44;;;;;;;33.38;28.05;;;10.40;99.90;;;;;;6183189;23;20031;-75
2022/03/17 03:37:55;;;;;;;34.58;28.35;;;10.40;99.90;;;;;;6209102;23;20020;-76
2022/03/17 03:40:21;;;;;;;34.13;28.38;;;10.40;99.90;;;;;;6212538;23;20018;-76
2022/03/17 03:42:48;;;;;;;34.55;28.33;;;10.40;99.90;;;;;;6210738;23;20456;-76
2022/03/17 03:45:13;;;;;;;34.37;28.73;;;10.40;99.90;;;;;;6211390;23;20016;-76
2022/03/17 03:47:39;;;;;;;35.35;27.77;;;10.40;99.90;;;;;;6210199;23;20031;-76
2022/03/17 03:50:05;;;;;;;34.13;27.70;;;10.40;99.90;;;;;;6217039;23;20510;-76
2022/03/17 03:52:31;;;;;;;34.30;28.83;;;10.40;99.90;;;;;;6210551;23;20013;-76
2022/03/17 03:54:57;;;;;;;33.10;28.10;;;10.40;99.90;;;;;;6184146;23;20067;-76
2022/03/17 03:57:24;;;;;;;33.08;28.33;;;10.40;99.90;;;;;;6184507;23;20017;-76
2022/03/17 03:59:50;;;;;;;32.17;28.35;;;10.40;99.90;;;;;;6184501;23;20019;-76
2022/03/17 04:02:16;;;;;;;32.47;27.75;;;10.40;99.90;;;;;;6184551;23;20095;-76
2022/03/17 04:04:42;;;;;;;33.13;28.58;;;10.40;99.90;;;;;;6212276;23;20084;-75
2022/03/17 04:07:10;;;;;;;35.67;28.63;;;10.40;99.90;;;;;;6183640;23;20028;-76
2022/03/17 04:09:39;;;;;;;34.15;27.98;;;10.40;99.90;;;;;;6212384;23;20433;-76
2022/03/17 04:12:07;;;;;;;36.22;29.20;;;10.40;99.90;;;;;;6184463;23;20024;-76
2022/03/17 04:14:32;;;;;;;33.25;27.73;;;10.40;99.90;;;;;;6184231;23;20082;-76
2022/03/17 04:16:59;;;;;;;32.63;28.25;;;10.40;99.90;;;;;;6181041;23;20817;-76
2022/03/17 04:19:25;;;;;;;32.72;29.05;;;10.40;99.90;;;;;;6184588;23;20024;-76
2022/03/17 04:21:51;;;;;;;34.47;30.20;;;10.50;99.90;;;;;;6207752;23;20017;-76
2022/03/17 04:24:18;;;;;;;34.80;28.48;;;10.50;99.90;;;;;;6185054;23;20444;-77
2022/03/17 04:26:44;;;;;;;33.67;28.63;;;10.40;99.90;;;;;;6210978;23;20016;-76
2022/03/17 04:29:11;;;;;;;35.35;29.83;;;10.50;99.90;;;;;;6211497;23;20059;-76
2022/03/17 04:31:38;;;;;;;37.08;28.90;;;10.50;99.90;;;;;;6210929;23;20020;-76
2022/03/17 04:34:04;;;;;;;34.63;30.85;;;10.50;99.90;;;;;;6210461;23;20024;-76
2022/03/17 04:36:33;;;;;;;36.90;29.38;;;10.50;99.90;;;;;;6184090;23;20012;-76
2022/03/17 04:39:00;;;;;;;35.15;28.85;;;10.50;99.90;;;;;;6211028;23;20031;-76
2022/03/17 04:41:26;;;;;;;36.65;28.75;;;10.50;99.90;;;;;;6183341;23;20016;-76
2022/03/17 04:43:52;;;;;;;34.05;30.35;;;10.50;99.90;;;;;;6210628;23;20503;-76
2022/03/17 04:46:17;;;;;;;35.28;30.33;;;10.50;99.90;;;;;;6210097;23;20024;-76
2022/03/17 04:48:43;;;;;;;37.67;30.63;;;10.50;99.90;;;;;;6210713;23;20043;-76
2022/03/17 04:51:09;;;;;;;34.67;30.35;;;10.50;99.90;;;;;;6209485;23;20020;-76
2022/03/17 04:53:35;;;;;;;38.70;34.25;;;10.50;99.90;;;;;;6185614;23;20016;-76
2022/03/17 04:56:00;;;;;;;38.00;33.65;;;10.50;99.90;;;;;;6208904;23;20023;-76
2022/03/17 04:58:28;;;;;;;40.78;33.38;;;10.50;99.90;;;;;;6208759;23;20020;-77
2022/03/17 05:00:55;;;;;;;35.20;31.38;;;10.50;99.90;;;;;;6182796;23;20017;-76
2022/03/17 05:03:21;;;;;;;37.05;32.58;;;10.60;99.90;;;;;;6216205;23;20023;-80
2022/03/17 05:05:48;;;;;;;38.95;34.20;;;10.60;99.90;;;;;;6219759;23;20025;-78
2022/03/17 05:08:14;;;;;;;44.55;37.88;;;10.60;99.90;;;;;;6220035;23;20020;-79
2022/03/17 05:10:40;;;;;;;50.65;39.78;;;10.60;99.90;;;;;;6188096;23;20016;-78
2022/03/17 05:13:08;;;;;;;49.28;41.45;;;10.60;99.90;;;;;;6210229;23;20035;-78
2022/03/17 05:15:35;;;;;;;;;;;10.60;99.90;;;;;;6211939;23;20095;-77
2022/03/17 05:18:01;;;;;;;;;;;10.60;99.90;;;;;;6182080;23;19915;-78
2022/03/17 05:20:27;;;;;;;56.53;45.25;;;10.60;99.90;;;;;;6209763;23;19995;-79
2022/03/17 05:22:53;;;;;;;57.17;45.30;;;10.50;99.90;;;;;;6210406;23;20040;-78
2022/03/17 05:25:19;;;;;;;62.03;47.67;;;10.50;99.90;;;;;;6209931;23;20115;-78
2022/03/17 05:27:46;;;;;;;58.03;46.10;;;10.50;99.90;;;;;;6210058;23;20023;-78
2022/03/17 05:30:14;;;;;;;63.07;47.90;;;10.50;99.90;;;;;;6209086;23;20027;-78
2022/03/17 05:32:40;;;;;;;61.80;47.40;;;10.50;99.90;;;;;;6210399;23;20017;-79
2022/03/17 05:35:07;;;;;;;63.97;49.90;;;10.50;99.90;;;;;;6209085;23;20024;-78
2022/03/17 05:37:34;;;;;;;64.38;50.05;;;10.50;99.90;;;;;;6209209;23;20011;-79
2022/03/17 05:40:02;;;;;;;63.47;48.55;;;10.40;99.90;;;;;;6183656;23;20017;-78
2022/03/17 05:42:28;;;;;;;66.60;50.83;;;10.40;99.90;;;;;;6216089;23;20016;-78
2022/03/17 05:44:54;;;;;;;64.75;49.88;;;10.40;99.90;;;;;;6209448;23;20009;-78
2022/03/17 05:47:20;;;;;;;55.90;43.72;;;10.40;99.90;;;;;;6209375;23;20012;-78
2022/03/17 05:49:47;;;;;;;41.70;33.55;;;10.40;99.90;;;;;;6210094;23;20024;-79
2022/03/17 05:52:13;;;;;;;22.08;15.23;;;10.30;99.90;;;;;;6184415;23;20459;-78
2022/03/17 05:54:39;;;;;;;15.25;12.20;;;10.20;99.90;;;;;;6158881;23;20067;-79
2022/03/17 05:57:05;;;;;;;9.88;7.50;;;10.10;99.90;;;;;;6211638;23;20012;-78
2022/03/17 05:59:30;;;;;;;9.63;8.02;;;10.00;99.90;;;;;;6211824;23;20108;-78
2022/03/17 06:01:56;;;;;;;9.88;8.13;;;9.80;99.90;;;;;;6210681;23;20493;-78
2022/03/17 06:04:22;;;;;;;11.52;9.40;;;9.70;99.90;;;;;;6212337;23;20012;-79
2022/03/17 06:06:48;;;;;;;12.25;10.32;;;9.60;99.90;;;;;;6183593;23;20044;-78
2022/03/17 06:09:14;;;;;;;13.65;12.15;;;9.50;99.90;;;;;;6211530;23;20074;-78
2022/03/17 06:11:39;;;;;;;12.25;10.95;;;9.40;99.90;;;;;;6183928;23;20024;-78
2022/03/17 06:14:06;;;;;;;13.55;12.15;;;9.30;99.90;;;;;;6210764;23;20031;-78
2022/03/17 06:16:34;;;;;;;13.50;11.77;;;9.20;99.90;;;;;;6184132;23;20016;-78
2022/03/17 06:19:05;;;;;;;14.38;11.93;;;9.20;99.90;;;;;;6211963;23;20095;-78
2022/03/17 06:21:31;;;;;;;12.68;11.35;;;9.10;99.90;;;;;;6210807;23;20071;-78
2022/03/17 06:23:56;;;;;;;13.00;11.70;;;9.10;99.90;;;;;;6184197;23;20141;-78
2022/03/17 06:26:22;;;;;;;14.65;11.60;;;9.00;99.90;;;;;;6209600;23;20017;-77
2022/03/17 06:28:49;;;;;;;16.20;12.65;;;9.00;99.90;;;;;;6182648;23;20492;-85
2022/03/17 06:31:14;;;;;;;15.37;12.30;;;9.00;99.90;;;;;;6210796;23;20128;-80
2022/03/17 06:33:40;;;;;;;14.60;11.85;;;8.90;99.90;;;;;;6206486;23;20299;-80
2022/03/17 06:36:06;;;;;;;15.55;11.93;;;8.90;99.90;;;;;;6210359;23;20027;-80
2022/03/17 06:38:31;;;;;;;14.82;11.73;;;8.90;99.90;;;;;;6211416;23;20025;-80
2022/03/17 06:41:00;;;;;;;14.00;12.25;;;8.90;99.90;;;;;;6210325;23;20059;-78
2022/03/17 06:43:25;;;;;;;16.73;11.95;;;8.90;99.90;;;;;;6209838;23;20063;-79
2022/03/17 06:45:51;;;;;;;16.42;12.35;;;8.90;99.90;;;;;;6209813;23;20099;-79
2022/03/17 06:48:19;;;;;;;17.52;13.10;;;8.90;99.90;;;;;;6208746;23;20024;-79
2022/03/17 06:50:45;;;;;;;15.52;12.80;;;8.90;99.90;;;;;;6210659;23;20048;-79
2022/03/17 06:53:10;;;;;;;19.27;12.25;;;8.90;99.90;;;;;;6209919;23;20116;-79
2022/03/17 06:55:36;;;;;;;15.32;11.80;;;8.80;99.90;;;;;;6210260;23;20075;-79
2022/03/17 06:58:02;;;;;;;16.55;11.30;;;8.80;99.90;;;;;;6183594;23;20543;-76
2022/03/17 07:00:28;;;;;;;17.75;11.18;;;8.80;99.90;;;;;;6183507;23;20048;-78
2022/03/17 07:02:53;;;;;;;13.27;10.15;;;8.80;99.90;;;;;;6203189;23;20082;-79
2022/03/17 07:05:19;;;;;;;17.77;10.70;;;8.80;99.90;;;;;;6210268;23;20016;-82
2022/03/17 07:07:45;;;;;;;17.98;10.98;;;8.80;99.90;;;;;;6181676;23;20147;-81
2022/03/17 07:10:12;;;;;;;20.15;10.93;;;8.80;99.90;;;;;;6208219;23;20021;-83
2022/03/17 07:12:39;;;;;;;16.75;10.00;;;8.80;99.90;;;;;;6183447;23;20016;-81
2022/03/17 07:15:05;;;;;;;14.88;9.18;;;8.80;99.90;;;;;;6210613;23;20040;-82
2022/03/17 07:17:41;;;;;;;18.98;9.90;;;8.70;99.90;;;;;;6209988;23;20023;-79
2022/03/17 07:20:08;;;;;;;17.38;9.38;;;8.70;99.90;;;;;;6210527;23;20016;-84
2022/03/17 07:22:33;;;;;;;16.45;9.57;;;8.70;99.90;;;;;;6184080;23;20028;-81
2022/03/17 07:24:59;;;;;;;16.25;8.77;;;8.70;99.90;;;;;;6182061;23;20452;-84
2022/03/17 07:27:29;;;;;;;13.20;7.90;;;8.70;99.90;;;;;;6182756;23;20344;-83
2022/03/17 07:29:55;;;;;;;;;;;8.70;99.90;;;;;;6210177;23;20048;-84
2022/03/17 07:32:22;;;;;;;14.05;7.70;;;8.70;99.90;;;;;;6212013;23;20368;-83
2022/03/17 07:34:49;;;;;;;;;;;8.70;99.90;;;;;;6189582;23;20455;-81
2022/03/17 07:37:15;;;;;;;15.23;6.90;;;8.70;99.90;;;;;;6209018;23;19916;-81
2022/03/17 07:39:42;;;;;;;12.20;5.53;;;8.60;99.90;;;;;;6210469;23;20302;-80
2022/03/17 07:42:08;;;;;;;12.02;5.10;;;8.70;99.90;;;;;;6182049;23;20534;-81
2022/03/17 07:44:35;;;;;;;9.77;3.97;;;8.70;99.90;;;;;;6207194;23;20024;-81
2022/03/17 07:47:01;;;;;;;13.00;4.63;;;8.70;99.90;;;;;;6209186;23;20095;-81
2022/03/17 07:49:28;;;;;;;9.77;4.00;;;8.70;99.90;;;;;;6182454;23;20410;-80
2022/03/17 07:51:54;;;;;;;12.20;4.47;;;8.70;99.90;;;;;;6209251;23;20071;-81
2022/03/17 07:54:20;;;;;;;10.50;3.90;;;8.70;99.90;;;;;;6210308;23;20095;-81
2022/03/17 07:56:46;;;;;;;13.02;4.22;;;8.70;99.90;;;;;;6208753;23;20017;-82
2022/03/17 07:59:11;;;;;;;13.00;4.63;;;8.70;99.90;;;;;;6209105;23;20019;-81
2022/03/17 08:01:37;;;;;;;12.57;3.95;;;8.80;99.90;;;;;;6184184;23;20178;-81
2022/03/17 08:04:04;;;;;;;12.27;3.85;;;8.80;99.90;;;;;;6209463;23;20135;-81
2022/03/17 08:06:29;;;;;;;12.07;3.97;;;8.80;99.90;;;;;;6209647;23;20025;-81
2022/03/17 08:08:56;;;;;;;11.95;4.13;;;8.80;99.90;;;;;;6182040;23;20095;-81
2022/03/17 08:11:23;;;;;;;16.40;4.60;;;8.70;99.90;;;;;;6210596;23;20016;-80
2022/03/17 08:13:50;;;;;;;13.90;4.60;;;8.70;99.90;;;;;;6208414;23;20016;-81
2022/03/17 08:16:18;;;;;;;15.63;4.00;;;8.70;99.90;;;;;;6210741;23;20459;-79
2022/03/17 08:18:44;;;;;;;14.48;5.28;;;8.60;99.90;;;;;;6209917;23;20248;-78
2022/03/17 08:21:10;;;;;;;17.23;4.50;;;8.60;99.90;;;;;;6182764;23;20031;-82
2022/03/17 08:23:35;;;;;;;12.68;3.53;;;8.60;99.90;;;;;;6211042;23;20017;-80
2022/03/17 08:26:01;;;;;;;10.90;4.07;;;8.60;99.90;;;;;;6209480;23;20027;-80
2022/03/17 08:28:27;;;;;;;12.00;3.97;;;8.50;99.90;;;;;;6210511;23;20479;-81
2022/03/17 08:30:53;;;;;;;12.32;3.05;;;8.50;99.90;;;;;;6183366;23;20066;-79
2022/03/17 08:33:19;;;;;;;16.98;3.58;;;8.50;99.90;;;;;;6181897;23;20106;-80
2022/03/17 08:35:45;;;;;;;12.18;2.70;;;8.50;99.90;;;;;;6209768;23;20013;-81
2022/03/17 08:38:12;;;;;;;13.45;2.83;;;8.50;99.90;;;;;;6211106;23;20060;-82
2022/03/17 08:40:38;;;;;;;15.43;2.88;;;8.50;99.90;;;;;;6210252;23;20071;-79
2022/03/17 08:43:08;;;;;;;12.50;2.50;;;8.50;99.90;;;;;;6183242;23;20330;-78
2022/03/17 08:51:04;;;;;;;10.65;2.42;;;8.50;99.90;;;;;;6209380;23;20441;-79
2022/03/17 08:53:30;;;;;;;14.10;2.53;;;8.50;99.90;;;;;;6209970;23;20027;-79
2022/03/17 08:55:56;;;;;;;16.13;2.90;;;8.40;99.90;;;;;;6209027;23;20013;-78
2022/03/17 08:58:23;;;;;;;14.80;2.58;;;8.40;99.90;;;;;;6211053;23;20447;-78
2022/03/17 09:00:49;;;;;;;14.25;2.40;;;8.40;99.90;;;;;;6210115;23;20009;-77
2022/03/17 09:03:14;;;;;;;12.43;2.35;;;8.40;99.90;;;;;;6183380;23;20048;-77
2022/03/17 09:05:41;;;;;;;10.45;2.17;;;8.40;99.90;;;;;;6210087;23;20269;-77
2022/03/17 09:08:08;;;;;;;16.07;2.67;;;8.40;99.90;;;;;;6210791;23;20587;-77
2022/03/17 09:10:35;;;;;;;12.85;2.65;;;8.30;99.90;;;;;;6210972;23;20244;-77
2022/03/17 09:13:07;;;;;;;15.43;2.67;;;8.40;99.90;;;;;;6210685;23;20021;-76
2022/03/17 09:15:36;;;;;;;17.38;3.33;;;8.40;99.90;;;;;;6210541;23;20024;-77
2022/03/17 09:18:02;;;;;;;15.52;2.70;;;8.40;99.90;;;;;;6210430;23;20013;-77
2022/03/17 09:20:28;;;;;;;12.32;2.33;;;8.40;99.90;;;;;;6211209;23;20012;-76
2022/03/17 09:22:55;;;;;;;13.60;2.55;;;8.40;99.90;;;;;;6213911;23;20440;-75
2022/03/17 09:25:23;;;;;;;14.38;2.55;;;8.40;99.90;;;;;;6191471;23;20020;-76
2022/03/17 09:27:52;;;;;;;16.27;2.90;;;8.50;99.90;;;;;;6214913;23;20440;-80
2022/03/17 09:30:18;;;;;;;13.20;2.85;;;8.40;99.90;;;;;;6215172;23;20013;-81
2022/03/17 09:32:46;;;;;;;16.52;2.65;;;8.40;99.90;;;;;;6213303;23;20483;-77
2022/03/17 09:35:13;;;;;;;13.40;2.42;;;8.40;99.90;;;;;;6212602;23;20055;-77
2022/03/17 09:37:40;;;;;;;18.08;3.20;;;8.50;99.90;;;;;;6186386;23;20473;-77
2022/03/17 09:40:07;;;;;;;15.05;2.92;;;8.50;99.90;;;;;;6213095;23;20455;-76
2022/03/17 09:42:34;;;;;;;18.02;3.60;;;8.50;99.90;;;;;;6212894;23;20027;-76
2022/03/17 09:45:00;;;;;;;13.95;2.45;;;8.40;99.90;;;;;;6212594;23;20013;-76
2022/03/17 09:47:28;;;;;;;16.83;3.15;;;8.40;99.90;;;;;;6213363;23;20062;-77
2022/03/17 09:49:56;;;;;;;15.10;2.80;;;8.50;99.90;;;;;;6213379;23;20383;-76
2022/03/17 09:52:23;;;;;;;14.32;3.03;;;8.50;99.90;;;;;;6211925;23;20571;-77
2022/03/17 09:54:52;;;;;;;14.30;2.75;;;8.60;99.90;;;;;;6212653;23;20059;-78
2022/03/17 09:57:18;;;;;;;14.60;2.75;;;8.60;99.90;;;;;;6186775;23;20839;-84
2022/03/17 09:59:48;;;;;;;17.73;3.13;;;8.60;99.90;;;;;;6212112;23;20013;-78
2022/03/17 10:02:16;;;;;;;16.02;3.83;;;8.60;99.90;;;;;;6212821;23;20645;-71
2022/03/17 10:04:46;;;;;;;21.52;3.55;;;8.60;99.90;;;;;;6211384;23;20024;-75
2022/03/17 10:07:12;;;;;;;16.25;3.10;;;8.60;99.90;;;;;;6213578;23;20017;-75
2022/03/17 10:09:38;;;;;;;12.50;2.50;;;8.70;99.90;;;;;;6186763;23;20091;-78
2022/03/17 10:12:06;;;;;;;11.35;2.03;;;8.70;99.90;;;;;;6212346;23;20055;-74
2022/03/17 10:14:58;;;;;;;12.85;2.60;;;8.70;99.90;;;;;;6212933;23;20019;-76
2022/03/17 10:17:38;;;;;;;15.18;2.95;;;8.80;99.90;;;;;;6207711;23;20099;-75
2022/03/17 10:20:12;;;;;;;16.83;2.60;;;8.80;99.90;;;;;;6184100;23;20017;-78
2022/03/17 10:22:43;;;;;;;12.00;2.45;;;8.80;99.90;;;;;;6212429;23;20318;-78
2022/03/17 10:25:08;;;;;;;14.70;2.67;;;8.90;99.90;;;;;;6211971;23;20447;-76
2022/03/17 10:27:38;;;;;;;11.27;2.42;;;8.90;99.90;;;;;;6213024;23;20023;-76
2022/03/17 10:30:07;;;;;;;14.13;2.67;;;8.90;99.90;;;;;;6212912;23;20017;-77
2022/03/17 10:32:34;;;;;;;12.25;2.40;;;9.00;99.90;;;;;;6185495;23;20024;-74
2022/03/17 10:34:59;;;;;;;12.57;2.40;;;9.00;99.90;;;;;;6185622;23;20008;-77
2022/03/17 10:37:26;;;;;;;13.40;2.60;;;9.00;99.90;;;;;;6213427;23;20139;-76
2022/03/17 10:39:57;;;;;;;16.13;3.28;;;9.00;99.90;;;;;;6211104;23;20088;-75
2022/03/17 10:42:26;;;;;;;15.27;2.67;;;9.00;99.90;;;;;;6213309;23;20024;-76
2022/03/17 10:44:55;;;;;;;13.20;2.42;;;9.00;99.90;;;;;;6211909;23;20020;-78
2022/03/17 10:47:24;;;;;;;13.73;3.23;;;9.00;99.90;;;;;;6211528;23;20542;-75
2022/03/17 10:50:13;;;;;;;13.05;2.90;;;9.10;99.90;;;;;;6212550;23;20044;-76
2022/03/17 10:52:56;;;;;;;16.20;3.08;;;9.20;99.90;;;;;;6212359;23;20016;-76
2022/03/17 10:55:25;;;;;;;13.23;3.05;;;9.30;99.90;;;;;;6212468;23;20021;-78
2022/03/17 10:57:55;;;;;;;13.38;2.47;;;9.30;99.90;;;;;;6212050;23;20016;-79
2022/03/17 11:00:26;;;;;;;13.90;2.65;;;9.40;99.90;;;;;;6213390;23;20016;-79
2022/03/17 11:02:58;;;;;;;16.80;2.95;;;9.50;99.90;;;;;;6211036;23;20332;-76
2022/03/17 11:05:24;;;;;;;15.77;2.70;;;9.50;99.90;;;;;;6212955;23;20036;-75
2022/03/17 11:07:51;;;;;;;11.38;2.25;;;9.50;99.90;;;;;;6211182;23;20452;-76
2022/03/17 11:10:19;;;;;;;14.80;3.20;;;9.50;99.90;;;;;;6212528;23;20108;-75
2022/03/17 11:12:46;;;;;;;12.93;2.60;;;9.60;99.90;;;;;;6212500;23;20017;-77
2022/03/17 11:15:12;;;;;;;;;;;9.70;99.90;;;;;;6212443;23;20066;-76
2022/03/17 11:17:49;;;;;;;13.88;3.13;;;9.70;99.90;;;;;;6188734;23;19923;-76
2022/03/17 11:20:22;;;;;;;12.57;2.67;;;9.80;99.90;;;;;;6212380;23;20016;-72
2022/03/17 11:23:11;;;;;;;13.23;2.67;;;9.80;99.90;;;;;;6184558;23;20290;-76
2022/03/17 11:25:37;;;;;;;12.13;1.92;;;9.80;99.90;;;;;;6212951;23;20025;-76
2022/03/17 11:28:05;;;;;;;11.68;2.30;;;9.80;99.90;;;;;;6211285;23;20012;-77
2022/03/17 11:30:47;;;;;;;10.60;2.13;;;9.90;99.90;;;;;;6211225;23;20031;-76
2022/03/17 11:33:35;;;;;;;9.55;1.90;;;10.10;99.90;;;;;;6212030;23;20019;-76
2022/03/17 11:36:15;;;;;;;13.55;2.38;;;10.30;99.90;;;;;;6210620;23;20016;-76
2022/03/17 11:39:02;;;;;;;11.45;1.95;;;10.40;99.90;;;;;;6212846;23;20024;-77
2022/03/17 11:41:30;;;;;;;12.40;2.20;;;10.50;99.90;;;;;;6212035;23;20020;-77
2022/03/17 11:43:56;;;;;;;11.65;2.20;;;10.60;99.90;;;;;;6210581;23;20020;-77
2022/03/17 11:46:24;;;;;;;7.97;1.45;;;10.70;99.90;;;;;;6211438;23;20017;-77
2022/03/17 11:48:54;;;;;;;9.25;2.08;;;10.80;98.10;;;;;;6211200;23;20024;-77
2022/03/17 11:51:20;;;;;;;8.75;2.15;;;10.80;95.10;;;;;;6211443;23;20443;-77
2022/03/17 11:54:07;;;;;;;10.90;2.10;;;10.90;96.40;;;;;;6211924;23;20025;-78
2022/03/17 11:56:37;;;;;;;10.02;2.10;;;11.00;97.10;;;;;;6211633;23;20019;-77
2022/03/17 11:59:07;;;;;;;14.20;2.40;;;11.00;94.70;;;;;;6210670;23;20024;-79
2022/03/17 12:01:39;;;;;;;9.23;2.10;;;11.00;94.00;;;;;;6184994;23;20028;-77
2022/03/17 12:04:07;;;;;;;9.88;1.83;;;11.00;93.40;;;;;;6210813;23;20017;-77
2022/03/17 12:06:39;;;;;;;15.68;2.75;;;11.10;95.60;;;;;;6212269;23;20120;-78
2022/03/17 12:09:10;;;;;;;14.18;2.78;;;11.10;91.80;;;;;;6211254;23;20024;-77
2022/03/17 12:11:44;;;;;;;13.23;2.20;;;11.20;92.60;;;;;;6211065;23;20020;-81
2022/03/17 12:14:21;;;;;;;11.68;2.63;;;11.10;90.10;;;;;;6212338;23;20030;-78
2022/03/17 12:16:58;;;;;;;7.97;1.92;;;11.10;91.60;;;;;;6210828;23;20017;-78
2022/03/17 12:19:38;;;;;;;13.90;2.80;;;11.00;90.70;;;;;;6210422;23;20502;-80
2022/03/17 12:22:11;;;;;;;9.65;2.33;;;11.00;79.70;;;;;;6211438;23;20013;-79
2022/03/17 12:24:47;;;;;;;9.82;2.00;;;11.00;82.40;;;;;;6212427;23;20048;-83
2022/03/17 12:27:19;;;;;;;11.38;2.08;;;11.00;83.10;;;;;;6210841;23;20063;-79
2022/03/17 12:29:47;;;;;;;8.45;1.95;;;11.00;81.70;;;;;;6211234;23;20348;-88
2022/03/17 12:32:18;;;;;;;12.23;2.55;;;11.10;83.00;;;;;;6208864;23;20025;-82
2022/03/17 12:34:48;;;;;;;9.43;1.95;;;11.20;80.50;;;;;;6209507;23;20042;-79
2022/03/17 12:37:15;;;;;;;9.32;2.03;;;11.20;76.50;;;;;;6210115;23;20009;-83
2022/03/17 12:39:42;;;;;;;10.63;2.40;;;11.30;82.10;;;;;;6209173;23;20024;-81
2022/03/17 12:42:22;;;;;;;11.85;1.98;;;11.40;81.40;;;;;;6209732;23;20024;-84
2022/03/17 12:45:07;;;;;;;10.85;2.35;;;11.50;77.60;;;;;;6182842;23;20025;-88
2022/03/17 12:47:35;;;;;;;12.02;2.30;;;11.50;76.90;;;;;;6208544;23;20020;-79
2022/03/17 12:50:13;;;;;;;10.50;2.30;;;11.40;74.60;;;;;;6209956;23;20024;-84
2022/03/17 12:52:41;;;;;;;11.00;2.42;;;11.40;73.40;;;;;;6209547;23;20016;-81
2022/03/17 12:55:10;;;;;;;12.68;2.47;;;11.30;77.30;;;;;;6181949;23;20021;-82